Time;durP1;ratioP1;P1;durP2;ratioP2;P2;SDS_P1;SDS_P2;PMS_P1;PMS_P2;Temp;Humidity;BMP_temperature;BMP_pressure;BME280_temperature;BME280_humidity;BME280_pressure;Samples;Min_cycle;Max_cycle;Signal;HPM_P1;HPM_P2
2022/12/11 08:35:38;;;;;;;;;13.00;11.50;;;;;17.80;29.11;100568.47;5061663;28;45431;-45
2022/12/11 08:38:04;;;;;;;;;13.25;10.25;;;;;17.79;29.17;100569.38;5077926;28;45415;-47
2022/12/11 08:40:29;;;;;;;;;12.00;11.25;;;;;17.78;29.14;100567.69;5054169;28;45463;-47
2022/12/11 08:42:54;;;;;;;;;9.50;7.75;;;;;17.76;29.12;100562.50;5072142;28;44698;-45
2022/12/11 08:45:20;;;;;;;;;12.00;11.00;;;;;17.76;29.02;100567.75;5053710;28;45395;-44
2022/12/11 08:47:45;;;;;;;;;12.25;10.50;;;;;17.73;29.01;100564.41;5069695;28;45429;-44
2022/12/11 08:50:10;;;;;;;;;9.67;9.00;;;;;17.73;29.14;100572.28;5062260;28;48204;-44
2022/12/11 08:52:36;;;;;;;;;10.75;10.50;;;;;17.72;29.10;100566.22;5059725;28;45391;-45
2022/12/11 08:55:01;;;;;;;;;10.25;9.25;;;;;17.71;29.07;100571.50;5059348;28;52068;-44
2022/12/11 08:57:27;;;;;;;;;12.75;10.25;;;;;17.69;29.10;100566.34;5060359;28;45317;-46
2022/12/11 08:59:52;;;;;;;;;10.00;10.00;;;;;17.67;28.99;100570.81;5059515;28;49883;-47
2022/12/11 09:02:18;;;;;;;;;11.25;11.25;;;;;17.67;29.18;100569.97;5059858;28;45237;-45
2022/12/11 09:04:43;;;;;;;;;12.25;10.50;;;;;17.65;29.02;100563.94;5059649;28;45249;-47
2022/12/11 09:07:08;;;;;;;;;9.67;9.67;;;;;17.65;29.06;100566.56;5059780;28;45343;-47
2022/12/11 09:09:34;;;;;;;;;13.25;12.25;;;;;17.62;28.92;100563.16;5060448;28;45429;-43
2022/12/11 09:12:00;;;;;;;;;11.75;10.75;;;;;17.61;28.92;100556.22;5060321;28;45205;-43
2022/12/11 09:14:25;;;;;;;;;12.00;10.50;;;;;17.58;28.99;100558.13;5060615;28;45440;-45
2022/12/11 09:16:51;;;;;;;;;13.50;12.00;;;;;17.58;29.02;100564.22;5061528;28;45305;-42
2022/12/11 09:19:16;;;;;;;;;14.25;12.00;;;;;17.57;28.94;100565.16;5041304;28;47014;-43
2022/12/11 09:21:43;;;;;;;;;12.50;11.25;;;;;17.56;28.95;100563.47;5059624;28;45416;-44
2022/12/11 09:24:10;;;;;;;;;12.75;11.00;;;;;17.55;28.90;100564.38;5059519;28;45465;-42
2022/12/11 09:26:35;;;;;;;;;6.00;5.00;;;;;17.54;28.89;100565.31;5060173;28;45554;-41
2022/12/11 09:29:03;;;;;;;;;15.50;11.50;;;;;17.54;28.89;100565.31;5059366;28;46551;-47
2022/12/11 09:31:31;;;;;;;;;10.25;10.00;;;;;17.52;29.03;100567.13;5061531;28;45868;-43
2022/12/11 09:34:00;;;;;;;;;13.50;11.25;;;;;17.52;28.78;100567.13;5064372;28;45363;-46
2022/12/11 09:36:26;;;;;;;;;11.75;9.75;;;;;17.51;28.53;100569.84;5059360;28;45316;-47
2022/12/11 09:38:52;;;;;;;;;15.75;12.00;;;;;17.49;28.95;100561.19;5059211;28;46182;-43
2022/12/11 09:41:20;;;;;;;;;11.50;11.00;;;;;17.50;28.96;100568.13;5070193;28;45259;-49
2022/12/11 09:43:57;;;;;;;;;12.25;10.75;;;;;17.49;29.02;100575.13;5073141;28;45220;-48
2022/12/11 09:46:23;;;;;;;;;13.25;12.25;;;;;17.47;28.90;100582.25;5074403;28;45487;-49
2022/12/11 09:48:49;;;;;;;;;15.50;11.75;;;;;17.45;28.89;100577.06;5075665;28;46380;-45
2022/12/11 09:51:26;;;;;;;;;16.00;12.00;;;;;17.46;28.98;100572.69;5066708;28;45307;-46
2022/12/11 09:53:56;;;;;;;;;9.50;9.50;;;;;17.45;28.92;100571.81;5066420;28;45169;-47
2022/12/11 09:56:30;;;;;;;;;12.25;11.00;;;;;17.44;28.96;100567.50;5066143;28;45297;-47
2022/12/11 09:59:17;;;;;;;;;12.00;12.00;;;;;17.43;28.86;100578.88;5041374;28;47336;-43
2022/12/11 10:02:02;;;;;;;;;11.50;10.00;;;;;17.41;28.94;100578.13;5057650;28;45983;-44
2022/12/11 10:05:12;;;;;;;;;15.00;10.50;;;;;17.38;28.86;100582.63;5059374;28;45355;-44
2022/12/11 10:08:10;;;;;;;;;14.50;9.75;;;;;17.39;28.87;100586.97;5038001;28;45239;-47
2022/12/11 10:10:55;;;;;;;;;12.00;10.25;;;;;17.37;28.96;100592.28;5057517;28;47472;-43
2022/12/11 10:13:45;;;;;;;;;10.25;9.00;;;;;17.36;28.87;100587.13;5048730;28;45396;-44
2022/12/11 10:16:38;;;;;;;;;14.25;11.50;;;;;17.35;28.98;100582.81;5058720;28;45493;-42
2022/12/11 10:19:03;;;;;;;;;11.75;10.25;;;;;17.36;28.79;100581.88;5080900;28;45265;-51
2022/12/11 10:21:38;;;;;;;;;12.25;10.75;;;;;17.34;28.98;100574.06;5079504;28;46017;-48
2022/12/11 10:24:15;;;;;;;;;10.75;9.75;;;;;17.34;28.95;100575.84;5078605;28;45807;-45
2022/12/11 10:26:41;;;;;;;;;10.25;10.25;;;;;17.33;28.95;100571.53;5062315;28;45483;-44
2022/12/11 10:29:14;;;;;;;;;12.75;10.25;;;;;17.33;28.89;100576.78;5079253;28;44850;-43
2022/12/11 10:31:54;;;;;;;;;13.75;12.00;;;;;17.33;28.75;100561.06;5064666;28;46087;-45
2022/12/11 10:34:34;;;;;;;;;14.00;11.50;;;;;17.31;28.67;100558.50;5058465;28;45883;-43
2022/12/11 10:37:01;;;;;;;;;10.75;10.75;;;;;17.28;28.69;100553.41;5058840;28;45360;-47
2022/12/11 10:39:26;;;;;;;;;10.75;10.75;;;;;17.27;28.90;100557.78;5058492;28;45438;-45
2022/12/11 10:41:54;;;;;;;;;10.50;10.50;;;;;17.28;29.14;100556.88;5074807;28;45162;-44
2022/12/11 10:44:28;;;;;;;;;16.00;10.50;;;;;17.29;28.86;100553.34;5067336;28;45217;-42
2022/12/11 10:47:06;;;;;;;;;12.00;11.25;;;;;17.28;28.87;100551.63;5059227;28;45350;-47
2022/12/11 10:49:34;;;;;;;;;12.50;10.25;;;;;17.27;28.84;100551.72;5059078;28;45371;-45
2022/12/11 10:52:00;;;;;;;;;9.25;9.00;;;;;17.26;28.77;100550.84;5058919;28;47203;-46
2022/12/11 10:54:28;;;;;;;;;12.00;9.75;;;;;17.23;28.84;100548.41;5058663;28;45932;-42
2022/12/11 10:56:54;;;;;;;;;7.25;6.50;;;;;17.23;28.81;100544.91;5060312;28;45424;-42
2022/12/11 10:59:42;;;;;;;;;11.25;10.50;;;;;17.22;28.79;100543.22;5058656;28;45562;-42
2022/12/11 11:02:40;;;;;;;;;14.50;10.75;;;;;17.19;28.76;100535.50;5074838;28;46150;-42
2022/12/11 11:05:25;;;;;;;;;12.00;10.25;;;;;17.18;28.63;100534.66;5026518;28;45427;-44
2022/12/11 11:08:02;;;;;;;;;10.50;10.50;;;;;17.17;28.70;100538.19;5060149;28;45376;-44
2022/12/11 11:10:27;;;;;;;;;9.50;9.25;;;;;17.14;28.81;100533.09;5059551;28;45447;-42
2022/12/11 11:13:01;;;;;;;;;11.25;10.75;;;;;17.14;28.63;100526.09;5060315;28;58176;-44
2022/12/11 11:15:29;;;;;;;;;12.50;9.75;;;;;17.12;28.83;100519.22;5068576;28;45429;-45
2022/12/11 11:17:56;;;;;;;;;13.25;9.75;;;;;17.12;28.93;100527.09;5050780;28;45343;-48
2022/12/11 11:20:28;;;;;;;;;11.50;10.25;;;;;17.11;28.64;100517.53;5047122;28;45500;-46
2022/12/11 11:23:02;;;;;;;;;13.75;11.00;;;;;17.10;28.32;100524.50;5063977;28;46621;-44
2022/12/11 11:25:29;;;;;;;;;11.00;9.50;;;;;17.09;28.66;100520.19;5062659;28;45313;-43
2022/12/11 11:28:01;;;;;;;;;12.50;10.25;;;;;17.08;28.67;100525.50;5057599;28;45256;-41
2022/12/11 11:30:34;;;;;;;;;9.50;7.75;;;;;17.05;28.67;100521.28;5057514;28;45248;-47
2022/12/11 11:33:11;;;;;;;;;11.75;9.75;;;;;17.06;28.68;100527.34;5056803;28;45536;-42
2022/12/11 11:35:36;;;;;;;;;14.00;11.25;;;;;17.05;28.79;100520.41;5056820;28;45450;-43
2022/12/11 11:38:16;;;;;;;;;12.25;11.75;;;;;17.04;28.61;100513.47;5057220;28;45312;-44
2022/12/11 11:40:49;;;;;;;;;13.75;12.00;;;;;17.03;28.80;100511.81;5057784;28;45378;-48
2022/12/11 11:43:37;;;;;;;;;10.50;10.50;;;;;17.01;28.80;100509.22;5055775;28;47609;-44
2022/12/11 11:46:15;;;;;;;;;13.00;11.25;;;;;17.01;28.70;100509.22;5056886;28;45481;-43
2022/12/11 11:49:12;;;;;;;;;14.50;12.25;;;;;16.99;28.64;100506.69;5061896;28;45369;-43
2022/12/11 11:51:43;;;;;;;;;12.25;11.25;;;;;16.98;28.49;100505.00;5057209;28;45209;-48
2022/12/11 11:54:19;;;;;;;;;13.50;12.25;;;;;16.97;28.56;100503.28;5060734;28;45342;-44
2022/12/11 11:56:45;;;;;;;;;11.75;11.50;;;;;16.94;28.85;100498.19;5066492;28;45271;-44
2022/12/11 11:59:30;;;;;;;;;12.00;11.25;;;;;16.95;28.81;100505.13;5065939;28;45519;-46
2022/12/11 12:01:56;;;;;;;;;10.75;10.75;;;;;16.95;28.61;100499.88;5065788;28;45456;-46
2022/12/11 12:04:25;;;;;;;;;15.50;10.50;;;;;16.94;28.63;100507.81;5063490;28;46052;-44
2022/12/11 12:07:07;;;;;;;;;12.50;11.75;;;;;16.92;28.63;100505.22;5066230;28;46217;-44
2022/12/11 12:09:56;;;;;;;;;12.25;9.25;;;;;16.93;28.84;100499.06;5070343;28;45346;-42
2022/12/11 12:12:28;;;;;;;;;12.25;12.25;;;;;16.91;28.71;100502.69;5057827;28;45334;-46
2022/12/11 12:15:08;;;;;;;;;13.75;11.00;;;;;16.90;28.81;100487.91;5056742;28;45572;-44
2022/12/11 12:17:54;;;;;;;;;14.50;11.50;;;;;16.87;28.78;100480.19;5059780;28;45321;-46
2022/12/11 12:20:38;;;;;;;;;11.50;11.25;;;;;16.89;28.83;100487.06;5062788;28;45430;-42
2022/12/11 12:23:26;;;;;;;;;11.00;10.75;;;;;16.89;28.79;100480.94;5074141;28;45581;-43
2022/12/11 12:26:09;;;;;;;;;14.75;12.25;;;;;16.87;28.82;100482.81;5076444;28;45321;-46
2022/12/11 12:28:50;;;;;;;;;13.25;11.00;;;;;16.88;28.86;100476.63;5068547;28;45510;-45
2022/12/11 12:31:50;;;;;;;;;14.00;12.25;;;;;16.86;28.91;100474.09;5061578;28;45450;-44
2022/12/11 12:34:43;;;;;;;;;13.75;10.75;;;;;16.85;28.93;100475.00;5060592;28;45360;-46
2022/12/11 12:37:16;;;;;;;;;13.25;11.25;;;;;16.85;28.88;100472.41;5065405;28;45654;-44
2022/12/11 12:39:50;;;;;;;;;13.25;13.00;;;;;16.83;28.81;100459.41;5070621;28;45226;-42
2022/12/11 12:42:37;;;;;;;;;18.00;12.50;;;;;16.80;28.75;100462.13;5063425;28;45312;-43
2022/12/11 12:45:13;;;;;;;;;13.75;11.00;;;;;16.80;28.90;100445.59;5050114;28;45329;-45
2022/12/11 12:47:42;;;;;;;;;15.50;12.50;;;;;16.81;28.77;100449.91;5071412;28;46352;-47
2022/12/11 12:50:16;;;;;;;;;12.75;11.50;;;;;16.81;28.89;100452.53;5065014;28;45359;-43
2022/12/11 12:52:42;;;;;;;;;15.50;10.75;;;;;16.80;28.58;100453.47;5060637;28;45398;-45
2022/12/11 12:55:30;;;;;;;;;11.50;9.75;;;;;16.80;28.73;100448.22;5060595;28;45216;-43
2022/12/11 12:58:01;;;;;;;;;11.00;10.25;;;;;16.79;28.87;100446.50;5059563;28;47222;-44
2022/12/11 13:00:30;;;;;;;;;14.00;13.50;;;;;16.79;28.80;100436.06;5060114;28;45273;-42
2022/12/11 13:02:57;;;;;;;;;15.75;13.00;;;;;16.78;28.74;100434.34;5059430;28;45229;-42
2022/12/11 13:05:25;;;;;;;;;13.25;11.75;;;;;16.76;28.88;100431.78;5041025;28;45471;-44
2022/12/11 13:08:03;;;;;;;;;10.50;10.50;;;;;16.76;28.72;100425.72;5058694;28;45443;-43
2022/12/11 13:10:55;;;;;;;;;12.75;11.50;;;;;16.75;28.86;100419.66;5041333;28;45507;-46
2022/12/11 13:13:33;;;;;;;;;11.75;11.75;;;;;16.75;28.79;100424.00;5040439;28;45442;-45
2022/12/11 13:16:26;;;;;;;;;11.75;10.25;;;;;16.72;28.75;100411.06;5072710;28;45277;-48
2022/12/11 13:18:52;;;;;;;;;16.25;13.25;;;;;16.74;28.79;100420.56;5071649;28;45430;-45
2022/12/11 13:21:37;;;;;;;;;15.00;12.25;;;;;16.73;28.80;100424.09;5060081;28;45241;-45
2022/12/11 13:24:24;;;;;;;;;11.75;11.25;;;;;16.73;28.86;100415.38;5040993;28;45350;-46
2022/12/11 13:26:50;;;;;;;;;12.75;10.50;;;;;16.72;29.01;100413.69;5059614;28;45248;-44
2022/12/11 13:29:39;;;;;;;;;14.25;13.25;;;;;16.70;28.81;100405.91;5059103;28;45611;-43
2022/12/11 13:32:16;;;;;;;;;13.25;12.50;;;;;16.72;28.88;100408.44;5058858;28;45338;-43
2022/12/11 13:34:50;;;;;;;;;11.00;10.00;;;;;16.68;28.92;100408.59;5059303;28;45328;-45
2022/12/11 13:37:38;;;;;;;;;13.50;12.25;;;;;16.69;28.98;100412.06;5063219;28;45466;-43
2022/12/11 13:40:19;;;;;;;;;11.50;11.50;;;;;16.67;28.87;100404.28;5063322;28;46071;-46
2022/12/11 13:42:51;;;;;;;;;15.75;14.00;;;;;16.69;28.73;100404.22;5066076;28;45963;-44
2022/12/11 13:45:22;;;;;;;;;12.00;11.75;;;;;16.67;28.78;100411.28;5059172;28;45382;-47
2022/12/11 13:47:47;;;;;;;;;11.75;11.75;;;;;16.66;28.99;100407.81;5059001;28;45394;-43
2022/12/11 13:50:29;;;;;;;;;20.25;13.75;;;;;16.66;28.76;100406.97;5059079;28;46276;-45
2022/12/11 13:52:56;;;;;;;;;15.75;12.25;;;;;16.65;28.93;100407.88;5058681;28;45411;-42
2022/12/11 13:55:27;;;;;;;;;13.75;12.25;;;;;16.65;28.89;100410.50;5040920;28;45344;-45
2022/12/11 13:57:52;;;;;;;;;17.50;12.25;;;;;16.64;28.91;100400.97;5060269;28;45344;-42
2022/12/11 14:00:27;;;;;;;;;14.00;12.50;;;;;16.63;28.89;100402.72;5071031;28;46112;-43
2022/12/11 14:02:57;;;;;;;;;18.25;13.75;;;;;16.63;28.89;100400.09;5059449;28;45926;-44
2022/12/11 14:05:23;;;;;;;;;15.25;14.25;;;;;16.63;28.94;100399.28;5067630;28;45736;-43
2022/12/11 14:07:52;;;;;;;;;16.25;12.75;;;;;16.61;28.78;100396.69;5071677;28;45290;-43
2022/12/11 14:10:22;;;;;;;;;16.50;14.25;;;;;16.60;28.69;100397.63;5048232;28;45451;-43
2022/12/11 14:13:20;;;;;;;;;12.25;12.00;;;;;16.63;28.90;100400.09;5065070;28;45370;-42
2022/12/11 14:15:46;;;;;;;;;13.50;12.75;;;;;16.62;28.82;100402.81;5060664;28;45358;-42
2022/12/11 14:18:16;;;;;;;;;14.75;14.75;;;;;16.61;29.22;100396.69;5062269;28;45608;-41
2022/12/11 14:20:42;;;;;;;;;10.50;10.00;;;;;16.59;28.99;100388.06;5068675;28;45182;-42
2022/12/11 14:23:15;;;;;;;;;15.50;13.00;;;;;16.57;29.00;100389.94;5072680;28;45178;-44
2022/12/11 14:25:41;;;;;;;;;15.50;13.00;;;;;16.58;28.84;100386.41;5063187;28;45257;-44
2022/12/11 14:28:15;;;;;;;;;12.50;12.50;;;;;16.57;28.90;100389.94;5060837;28;45299;-44
2022/12/11 14:30:48;;;;;;;;;13.00;11.25;;;;;16.56;29.08;100393.47;5062646;28;46394;-43
2022/12/11 14:33:15;;;;;;;;;12.25;12.25;;;;;16.56;28.97;100380.38;5049175;28;45292;-47
2022/12/11 14:35:42;;;;;;;;;13.75;12.50;;;;;16.57;29.04;100381.22;5069665;28;44737;-42
2022/12/11 14:38:33;;;;;;;;;19.00;14.00;;;;;16.54;28.85;100377.81;5058119;28;45562;-44
2022/12/11 14:41:05;;;;;;;;;19.00;13.75;;;;;16.54;28.83;100371.75;5057752;28;45418;-46
2022/12/11 14:43:41;;;;;;;;;16.75;14.00;;;;;16.54;28.79;100374.38;5057558;28;45847;-46
2022/12/11 14:46:19;;;;;;;;;16.75;13.00;;;;;16.53;29.07;100370.03;5058039;28;45485;-43
2022/12/11 14:48:54;;;;;;;;;13.50;13.00;;;;;16.50;28.89;100368.44;5038917;28;45324;-43
2022/12/11 14:51:21;;;;;;;;;13.00;11.50;;;;;16.51;28.83;100371.88;5058175;28;45723;-45
2022/12/11 14:53:49;;;;;;;;;13.75;12.75;;;;;16.52;29.00;100376.19;5058030;28;45833;-45
2022/12/11 14:56:22;;;;;;;;;16.00;12.50;;;;;16.50;28.86;100378.88;5040724;28;45201;-46
2022/12/11 14:59:05;;;;;;;;;10.25;9.75;;;;;16.48;28.74;100375.50;5058841;28;45228;-44
2022/12/11 15:01:33;;;;;;;;;16.00;13.25;;;;;16.49;28.81;100365.88;5061739;28;46627;-44
2022/12/11 15:04:14;;;;;;;;;14.50;14.50;;;;;16.49;28.86;100371.97;5065528;28;45248;-42
2022/12/11 15:06:45;;;;;;;;;11.25;11.25;;;;;16.47;28.88;100373.78;5070169;28;45464;-44
2022/12/11 15:09:25;;;;;;;;;13.50;12.25;;;;;16.47;29.23;100378.19;5066512;28;45253;-46
2022/12/11 15:11:52;;;;;;;;;16.75;13.75;;;;;16.46;29.04;100376.50;5077268;28;46178;-42
2022/12/11 15:14:21;;;;;;;;;15.75;15.25;;;;;16.46;29.09;100377.31;5070564;28;45158;-47
2022/12/11 15:16:48;;;;;;;;;21.25;15.25;;;;;16.49;29.03;100379.81;5065346;28;45539;-44
2022/12/11 15:19:25;;;;;;;;;13.50;13.50;;;;;16.53;29.28;100377.91;5069500;28;45526;-42
2022/12/11 15:21:52;;;;;;;;;13.25;13.25;;;;;16.56;29.08;100376.91;5066972;28;45435;-45
2022/12/11 15:24:39;;;;;;;;;17.25;15.75;;;;;16.62;29.09;100377.47;5043239;28;45625;-43
2022/12/11 15:27:05;;;;;;;;;12.75;11.75;;;;;16.69;29.21;100381.53;5066500;28;45323;-43
2022/12/11 15:29:38;;;;;;;;;16.50;14.50;;;;;16.75;29.20;100376.91;5058189;28;45459;-44
2022/12/11 15:32:07;;;;;;;;;15.75;13.75;;;;;16.78;29.04;100372.38;5064547;28;45248;-46
2022/12/11 15:34:41;;;;;;;;;13.50;11.75;;;;;16.85;29.15;100372.94;5068779;28;45741;-44
2022/12/11 15:37:30;;;;;;;;;14.25;12.50;;;;;16.90;28.95;100376.19;5066067;28;45358;-44
2022/12/11 15:39:58;;;;;;;;;14.75;12.00;;;;;16.95;29.06;100376.84;5070650;28;45288;-43
2022/12/11 15:42:31;;;;;;;;;15.00;13.50;;;;;16.98;29.07;100378.47;5065756;28;46255;-44
2022/12/11 15:44:58;;;;;;;;;16.75;12.25;;;;;17.02;29.19;100377.41;5071689;28;45435;-42
2022/12/11 15:47:26;;;;;;;;;14.00;13.75;;;;;17.06;28.98;100375.47;5071981;28;44842;-44
2022/12/11 15:50:00;;;;;;;;;15.50;15.50;;;;;17.09;28.81;100370.09;5044839;28;45206;-43
2022/12/11 15:52:26;;;;;;;;;14.25;12.75;;;;;17.13;28.70;100374.28;5060519;28;46186;-47
2022/12/11 15:54:51;;;;;;;;;15.00;14.25;;;;;17.15;28.92;100369.78;5070396;28;45328;-47
2022/12/11 15:57:21;;;;;;;;;15.75;14.00;;;;;17.18;28.70;100369.66;5069798;28;45384;-48
2022/12/11 15:59:48;;;;;;;;;12.50;12.00;;;;;17.20;28.83;100366.97;5067298;28;45344;-45
2022/12/11 16:02:14;;;;;;;;;14.75;14.75;;;;;17.23;28.65;100366.81;5061878;28;46450;-49
2022/12/11 16:04:39;;;;;;;;;13.00;12.50;;;;;17.23;28.70;100378.16;5062620;28;45779;-45
2022/12/11 16:07:21;;;;;;;;;15.75;13.50;;;;;17.26;28.60;100377.16;5044162;28;45372;-48
2022/12/11 16:09:46;;;;;;;;;13.50;13.50;;;;;17.27;28.57;100379.69;5062420;28;45399;-46
2022/12/11 16:12:13;;;;;;;;;14.50;13.75;;;;;17.27;28.46;100371.00;5063430;28;46629;-44
2022/12/11 16:14:39;;;;;;;;;19.50;18.00;;;;;17.29;28.61;100385.69;5075136;28;45276;-44
2022/12/11 16:17:06;;;;;;;;;17.50;15.25;;;;;17.29;28.63;100377.00;5077576;28;45345;-42
2022/12/11 16:19:33;;;;;;;;;18.25;16.25;;;;;17.27;28.50;100379.69;5064073;28;45610;-42
2022/12/11 16:21:58;;;;;;;;;20.00;16.50;;;;;17.29;28.50;100377.84;5063850;28;45466;-44
2022/12/11 16:24:24;;;;;;;;;17.00;14.00;;;;;17.28;28.64;100376.16;5070602;28;45336;-48
2022/12/11 16:26:49;;;;;;;;;14.50;14.50;;;;;17.29;28.38;100372.59;5068715;28;45364;-44
2022/12/11 16:29:14;;;;;;;;;17.00;15.50;;;;;17.26;28.54;100372.75;5066577;28;45406;-47
2022/12/11 16:31:40;;;;;;;;;14.67;14.67;;;;;17.27;28.28;100369.19;5051883;28;58139;-44
2022/12/11 16:34:05;;;;;;;;;14.33;14.33;;;;;17.26;28.44;100370.13;5061414;28;56948;-46
2022/12/11 16:36:30;;;;;;;;;23.00;21.00;;;;;17.26;28.49;100371.91;5060093;28;45336;-47
2022/12/11 16:38:56;;;;;;;;;22.25;18.75;;;;;17.26;28.47;100372.75;5060470;28;45506;-44
2022/12/11 16:41:23;;;;;;;;;18.75;18.75;;;;;17.26;28.30;100372.75;5059965;28;45998;-43
2022/12/11 16:43:49;;;;;;;;;26.00;22.00;;;;;17.25;28.50;100378.91;5059302;28;46092;-44
2022/12/11 16:46:20;;;;;;;;;25.50;22.75;;;;;17.24;28.18;100372.00;5060003;28;45374;-43
2022/12/11 16:48:46;;;;;;;;;25.00;23.75;;;;;17.24;28.38;100379.84;5058977;28;45269;-44
2022/12/11 16:51:11;;;;;;;;;23.75;21.25;;;;;17.21;28.23;100374.75;5059271;28;46023;-47
2022/12/11 16:53:36;;;;;;;;;29.67;26.67;;;;;17.22;28.45;100376.44;5064846;28;48629;-42
2022/12/11 16:56:04;;;;;;;;;28.00;24.00;;;;;17.22;28.39;100379.06;5070295;28;47220;-44
2022/12/11 16:58:29;;;;;;;;;36.50;27.50;;;;;17.21;28.37;100377.38;5064933;28;45319;-47
2022/12/11 17:01:00;;;;;;;;;25.67;21.67;;;;;17.19;28.24;100371.34;5060579;28;50995;-47
2022/12/11 17:03:28;;;;;;;;;30.25;23.75;;;;;17.16;28.44;100366.25;5062872;28;45331;-42
2022/12/11 17:05:54;;;;;;;;;30.50;27.50;;;;;17.15;28.29;100370.66;5042163;28;45343;-44
2022/12/11 17:08:19;;;;;;;;;26.75;24.00;;;;;17.15;28.49;100369.78;5060026;28;45652;-44
2022/12/11 17:10:44;;;;;;;;;32.75;28.50;;;;;17.13;28.37;100363.81;5058820;28;47082;-43
2022/12/11 17:13:10;;;;;;;;;28.25;27.00;;;;;17.11;28.49;100358.63;5058976;28;45221;-43
2022/12/11 17:15:39;;;;;;;;;29.67;28.00;;;;;17.08;28.46;100364.03;5059465;28;45385;-44
2022/12/11 17:18:05;;;;;;;;;28.50;26.75;;;;;17.08;28.44;100373.66;5059131;28;45447;-46
2022/12/11 17:20:30;;;;;;;;;32.33;28.00;;;;;17.07;28.29;100377.19;5058823;28;56756;-43
2022/12/11 17:22:55;;;;;;;;;27.00;25.33;;;;;17.04;28.30;100374.69;5045822;28;54639;-42
2022/12/11 17:25:21;;;;;;;;;31.00;25.33;;;;;17.04;28.36;100378.19;5047692;28;45410;-45
2022/12/11 17:27:47;;;;;;;;;27.25;26.00;;;;;17.02;28.62;100374.78;5066382;28;45300;-42
2022/12/11 17:30:13;;;;;;;;;28.50;26.00;;;;;17.01;28.34;100375.69;5060035;28;45441;-43
2022/12/11 17:32:38;;;;;;;;;28.00;26.75;;;;;17.00;28.48;100376.63;5062748;28;45198;-45
2022/12/11 17:35:04;;;;;;;;;33.25;28.00;;;;;16.99;28.61;100377.53;5060419;28;45305;-43
2022/12/11 17:37:29;;;;;;;;;19.25;19.00;;;;;16.97;28.29;100376.78;5059154;28;45331;-45
2022/12/11 17:39:55;;;;;;;;;27.33;25.33;;;;;16.96;28.50;100375.94;5063476;28;53977;-43
2022/12/11 17:42:20;;;;;;;;;32.00;26.67;;;;;16.96;28.36;100388.19;5069877;28;45413;-43
2022/12/11 17:44:45;;;;;;;;;30.00;25.50;;;;;16.94;28.51;100377.75;5059341;28;45426;-42
2022/12/11 17:47:11;;;;;;;;;28.67;27.33;;;;;16.91;28.53;100377.91;5043810;28;45276;-42
2022/12/11 17:49:38;;;;;;;;;30.50;24.25;;;;;16.88;28.30;100375.41;5070408;28;45368;-44
2022/12/11 17:52:03;;;;;;;;;27.50;25.25;;;;;16.89;28.54;100379.72;5062401;28;45892;-45
2022/12/11 17:54:28;;;;;;;;;31.50;25.00;;;;;16.87;28.53;100378.13;5067878;28;45383;-44
2022/12/11 17:56:54;;;;;;;;;29.25;25.25;;;;;16.86;28.62;100379.88;5073875;28;44904;-44
2022/12/11 17:59:19;;;;;;;;;30.50;27.25;;;;;16.81;28.81;100382.72;5061841;28;47709;-45
2022/12/11 18:01:45;;;;;;;;;30.33;27.00;;;;;16.81;28.69;100387.09;5059597;28;45363;-44
2022/12/11 18:04:10;;;;;;;;;29.00;27.75;;;;;16.79;28.47;100384.53;5059364;28;45406;-42
2022/12/11 18:06:36;;;;;;;;;31.25;27.75;;;;;16.80;28.52;100388.84;5060705;28;45398;-46
2022/12/11 18:09:02;;;;;;;;;30.00;27.75;;;;;16.79;28.60;100386.31;5063791;28;46133;-42
2022/12/11 18:11:28;;;;;;;;;29.25;25.50;;;;;16.77;28.43;100381.13;5079436;28;45029;-45
2022/12/11 18:13:53;;;;;;;;;30.50;27.00;;;;;16.77;28.40;100386.38;5068871;28;45190;-47
2022/12/11 18:16:29;;;;;;;;;28.75;24.75;;;;;16.75;28.54;100383.00;5059004;28;45317;-45
2022/12/11 18:18:55;;;;;;;;;29.50;23.50;;;;;16.76;28.45;100383.84;5071197;28;45225;-44
2022/12/11 18:21:23;;;;;;;;;27.25;26.50;;;;;16.74;28.66;100385.66;5073263;28;45043;-41
2022/12/11 18:23:49;;;;;;;;;22.00;22.00;;;;;16.73;28.73;100384.84;5069083;28;45321;-43
2022/12/11 18:26:17;;;;;;;;;25.50;23.25;;;;;16.73;28.72;100383.97;5066099;28;45455;-45
2022/12/11 18:28:42;;;;;;;;;29.00;25.25;;;;;16.70;28.68;100391.03;5049409;28;46145;-45
2022/12/11 18:31:09;;;;;;;;;26.75;21.75;;;;;16.71;28.57;100391.91;5062415;28;44652;-43
2022/12/11 18:33:36;;;;;;;;;20.50;18.25;;;;;16.71;28.62;100394.53;5062614;28;45284;-46
2022/12/11 18:36:02;;;;;;;;;25.75;23.50;;;;;16.70;28.80;100396.28;5063709;28;45218;-43
2022/12/11 18:38:28;;;;;;;;;27.25;25.25;;;;;16.71;28.52;100391.91;5063455;28;46291;-43
2022/12/11 18:40:53;;;;;;;;;24.00;23.50;;;;;16.69;28.67;100389.38;5063897;28;45304;-45
2022/12/11 18:43:18;;;;;;;;;27.25;23.25;;;;;16.69;28.84;100392.00;5044216;28;45514;-47
2022/12/11 18:45:44;;;;;;;;;26.75;20.50;;;;;16.68;28.66;100390.28;5060081;28;45328;-43
2022/12/11 18:48:10;;;;;;;;;26.50;22.50;;;;;16.69;28.71;100389.38;5061418;28;46257;-44
2022/12/11 18:50:36;;;;;;;;;28.50;23.25;;;;;16.70;28.78;100390.19;5073476;28;45472;-43
2022/12/11 18:53:01;;;;;;;;;27.00;23.50;;;;;16.70;28.65;100395.44;5072914;28;45479;-43
2022/12/11 18:55:26;;;;;;;;;24.00;21.75;;;;;16.69;28.94;100396.34;5068664;28;45607;-46
2022/12/11 18:57:52;;;;;;;;;23.00;21.75;;;;;16.67;29.01;100393.81;5060142;28;47910;-46
2022/12/11 19:00:17;;;;;;;;;25.75;22.00;;;;;16.67;28.99;100395.56;5063641;28;45253;-44
2022/12/11 19:02:43;;;;;;;;;23.75;21.50;;;;;16.63;28.78;100392.25;5076625;28;44748;-45
2022/12/11 19:05:09;;;;;;;;;26.00;23.25;;;;;16.66;28.97;100399.09;5074105;28;45253;-45
2022/12/11 19:07:34;;;;;;;;;28.00;24.00;;;;;16.65;28.87;100403.50;5063672;28;45546;-45
2022/12/11 19:10:00;;;;;;;;;22.75;20.25;;;;;16.63;29.11;100397.47;5061628;28;45926;-46
2022/12/11 19:12:25;;;;;;;;;25.50;23.25;;;;;16.63;29.08;100397.47;5059572;28;45242;-42
2022/12/11 19:14:50;;;;;;;;;25.00;22.25;;;;;16.63;29.12;100394.03;5059343;28;45174;-44
2022/12/11 19:17:16;;;;;;;;;25.00;22.25;;;;;16.62;28.98;100393.16;5058968;28;46282;-42
2022/12/11 19:19:43;;;;;;;;;25.75;19.75;;;;;16.62;29.07;100398.41;5058323;28;45304;-42
2022/12/11 19:22:09;;;;;;;;;23.25;21.00;;;;;16.61;29.23;100388.84;5058866;28;45395;-45
2022/12/11 19:24:34;;;;;;;;;26.00;21.00;;;;;16.60;29.32;100387.16;5060175;28;45268;-46
2022/12/11 19:27:00;;;;;;;;;29.00;25.00;;;;;16.58;29.11;100388.16;5058419;28;46498;-47
2022/12/11 19:29:31;;;;;;;;;23.25;18.75;;;;;16.59;29.03;100393.31;5057458;28;45324;-42
2022/12/11 19:31:57;;;;;;;;;22.25;21.25;;;;;16.61;29.26;100386.22;5045580;28;45292;-44
2022/12/11 19:34:24;;;;;;;;;16.00;14.75;;;;;16.62;29.36;100390.56;5062888;28;45430;-43
2022/12/11 19:36:50;;;;;;;;;23.25;21.00;;;;;16.61;29.11;100391.47;5065349;28;46315;-45
2022/12/11 19:39:23;;;;;;;;;24.00;20.00;;;;;16.63;29.03;100389.63;5049556;28;45823;-43
2022/12/11 19:41:48;;;;;;;;;28.50;24.25;;;;;16.67;29.06;100390.34;5070017;28;45261;-43
2022/12/11 19:44:13;;;;;;;;;24.25;20.50;;;;;16.70;29.39;100393.66;5050358;28;45355;-45
2022/12/11 19:46:39;;;;;;;;;24.00;22.00;;;;;16.75;29.10;100398.72;5069253;28;53714;-49
2022/12/11 19:49:04;;;;;;;;;23.50;20.50;;;;;16.79;29.05;100396.78;5071945;28;45426;-51
2022/12/11 19:51:33;;;;;;;;;19.75;19.75;;;;;16.83;29.30;100390.47;5071826;28;45438;-46
2022/12/11 19:54:01;;;;;;;;;26.00;20.00;;;;;16.87;29.29;100383.34;5066279;28;45209;-46
2022/12/11 19:56:27;;;;;;;;;23.50;19.75;;;;;16.90;29.20;100380.56;5065824;28;45238;-49
2022/12/11 19:58:53;;;;;;;;;24.25;20.75;;;;;16.96;29.00;100385.56;5066655;28;45422;-48
2022/12/11 20:01:29;;;;;;;;;22.75;20.25;;;;;16.99;29.15;100381.03;5064700;28;45263;-47